sensor_id;sensor_type;location;lat;lon;timestamp;pressure;altitude;pressure_sealevel;temperature;humidity
59419;BME280;45224;50.904;6.038;2023-01-05T00:00:37;99965.34;;;9.99;97.93
59419;BME280;45224;50.904;6.038;2023-01-05T00:02:07;99974.84;;;10.01;97.67
59419;BME280;45224;50.904;6.038;2023-01-05T00:03:38;99973.94;;;9.96;97.78
59419;BME280;45224;50.904;6.038;2023-01-05T00:05:08;99977.41;;;9.97;97.77
59419;BME280;45224;50.904;6.038;2023-01-05T00:06:39;99967.06;;;9.97;97.89
59419;BME280;45224;50.904;6.038;2023-01-05T00:08:10;99982.56;;;9.97;98.01
59419;BME280;45224;50.904;6.038;2023-01-05T00:09:41;99981.69;;;9.99;97.82
59419;BME280;45224;50.904;6.038;2023-01-05T00:11:17;99972.28;;;10.08;97.04
59419;BME280;45224;50.904;6.038;2023-01-05T00:13:07;99975.69;;;10.02;97.11
59419;BME280;45224;50.904;6.038;2023-01-05T00:14:56;99980.84;;;9.97;97.57
59419;BME280;45224;50.904;6.038;2023-01-05T00:16:45;99992.00;;;9.90;97.90
59419;BME280;45224;50.904;6.038;2023-01-05T00:18:34;99980.78;;;9.91;98.07
59419;BME280;45224;50.904;6.038;2023-01-05T00:20:23;99988.53;;;9.88;98.22
59419;BME280;45224;50.904;6.038;2023-01-05T00:22:17;99989.34;;;9.81;98.48
59419;BME280;45224;50.904;6.038;2023-01-05T00:23:59;99992.84;;;9.89;98.63
59419;BME280;45224;50.904;6.038;2023-01-05T00:25:35;99992.84;;;9.87;98.26
59419;BME280;45224;50.904;6.038;2023-01-05T00:27:05;99991.06;;;9.79;98.73
59419;BME280;45224;50.904;6.038;2023-01-05T00:28:36;99987.63;;;9.83;98.71
59419;BME280;45224;50.904;6.038;2023-01-05T00:30:09;99993.75;;;9.96;98.45
59419;BME280;45224;50.904;6.038;2023-01-05T00:31:40;100000.69;;;10.01;98.10
59419;BME280;45224;50.904;6.038;2023-01-05T00:33:13;99994.56;;;9.85;98.13
59419;BME280;45224;50.904;6.038;2023-01-05T00:34:43;100003.09;;;9.78;98.95
59419;BME280;45224;50.904;6.038;2023-01-05T00:36:14;100001.47;;;9.91;98.50
59419;BME280;45224;50.904;6.038;2023-01-05T00:37:44;100010.94;;;9.89;98.80
59419;BME280;45224;50.904;6.038;2023-01-05T00:39:15;100007.53;;;9.93;98.41
59419;BME280;45224;50.904;6.038;2023-01-05T00:40:45;100005.81;;;9.95;98.34
59419;BME280;45224;50.904;6.038;2023-01-05T00:42:16;100017.81;;;9.87;99.49
59419;BME280;45224;50.904;6.038;2023-01-05T00:43:46;100013.47;;;9.86;99.24
59419;BME280;45224;50.904;6.038;2023-01-05T00:45:18;100003.19;;;9.91;99.04
59419;BME280;45224;50.904;6.038;2023-01-05T00:46:48;100004.09;;;9.97;98.77
59419;BME280;45224;50.904;6.038;2023-01-05T00:48:19;100007.53;;;9.93;99.18
59419;BME280;45224;50.904;6.038;2023-01-05T00:49:49;99993.72;;;9.91;98.95
59419;BME280;45224;50.904;6.038;2023-01-05T00:51:20;100002.31;;;9.87;98.69
59419;BME280;45224;50.904;6.038;2023-01-05T00:52:50;100007.53;;;9.95;98.95
59419;BME280;45224;50.904;6.038;2023-01-05T00:54:21;100001.50;;;9.96;98.76
59419;BME280;45224;50.904;6.038;2023-01-05T00:55:56;100012.69;;;9.99;98.63
59419;BME280;45224;50.904;6.038;2023-01-05T00:57:27;99995.47;;;9.94;99.03
59419;BME280;45224;50.904;6.038;2023-01-05T00:58:58;100004.09;;;9.97;99.23
59419;BME280;45224;50.904;6.038;2023-01-05T01:00:29;99998.03;;;9.92;99.06
59419;BME280;45224;50.904;6.038;2023-01-05T01:01:59;100005.81;;;9.98;98.73
59419;BME280;45224;50.904;6.038;2023-01-05T01:03:30;100009.25;;;9.99;98.74
59419;BME280;45224;50.904;6.038;2023-01-05T01:05:01;100010.97;;;9.94;98.94
59419;BME280;45224;50.904;6.038;2023-01-05T01:06:34;100002.34;;;9.96;98.66
59419;BME280;45224;50.904;6.038;2023-01-05T01:08:04;100003.25;;;10.01;98.78
59419;BME280;45224;50.904;6.038;2023-01-05T01:09:35;99997.19;;;9.96;98.82
59419;BME280;45224;50.904;6.038;2023-01-05T01:11:07;99998.06;;;9.95;98.77
59419;BME280;45224;50.904;6.038;2023-01-05T01:12:38;99997.19;;;9.96;98.82
59419;BME280;45224;50.904;6.038;2023-01-05T01:14:10;99982.50;;;9.87;99.29
59419;BME280;45224;50.904;6.038;2023-01-05T01:15:41;99987.75;;;9.98;98.84
59419;BME280;45224;50.904;6.038;2023-01-05T01:17:16;99978.19;;;9.82;99.25
59419;BME280;45224;50.904;6.038;2023-01-05T01:18:46;99988.59;;;9.97;98.81
59419;BME280;45224;50.904;6.038;2023-01-05T01:20:17;99986.00;;;9.99;98.90
59419;BME280;45224;50.904;6.038;2023-01-05T01:21:48;99987.75;;;9.98;98.47
59419;BME280;45224;50.904;6.038;2023-01-05T01:23:18;99981.66;;;9.90;98.90
59419;BME280;45224;50.904;6.038;2023-01-05T01:24:49;99981.66;;;9.90;99.04
59419;BME280;45224;50.904;6.038;2023-01-05T01:26:20;99987.69;;;9.91;98.98
59419;BME280;45224;50.904;6.038;2023-01-05T01:27:51;99982.53;;;9.91;98.50
59419;BME280;45224;50.904;6.038;2023-01-05T01:29:22;99992.00;;;9.90;99.29
59419;BME280;45224;50.904;6.038;2023-01-05T01:30:55;100004.09;;;9.97;98.40
59419;BME280;45224;50.904;6.038;2023-01-05T01:32:25;99997.25;;;10.07;97.95
59419;BME280;45224;50.904;6.038;2023-01-05T01:33:56;99999.75;;;9.92;98.35
59419;BME280;45224;50.904;6.038;2023-01-05T01:35:26;99997.19;;;9.96;98.69
59419;BME280;45224;50.904;6.038;2023-01-05T01:36:57;99993.75;;;9.97;98.35
59419;BME280;45224;50.904;6.038;2023-01-05T01:38:33;99988.56;;;9.94;97.63
59419;BME280;45224;50.904;6.038;2023-01-05T01:40:04;100006.63;;;9.91;98.49
59419;BME280;45224;50.904;6.038;2023-01-05T01:41:36;100001.47;;;9.94;98.49
59419;BME280;45224;50.904;6.038;2023-01-05T01:45:17;100018.75;;;10.01;97.68
59419;BME280;45224;50.904;6.038;2023-01-05T01:46:48;100019.50;;;9.88;98.06
59419;BME280;45224;50.904;6.038;2023-01-05T01:48:19;100028.13;;;9.85;98.59
59419;BME280;45224;50.904;6.038;2023-01-05T01:49:50;100029.88;;;9.91;98.20
59419;BME280;45224;50.904;6.038;2023-01-05T01:51:43;100034.19;;;9.92;98.17
59419;BME280;45224;50.904;6.038;2023-01-05T01:53:27;100029.06;;;9.97;97.97
59419;BME280;45224;50.904;6.038;2023-01-05T01:55:00;100027.31;;;9.97;98.21
59419;BME280;45224;50.904;6.038;2023-01-05T01:56:36;100030.84;;;10.07;97.45
59419;BME280;45224;50.904;6.038;2023-01-05T01:58:12;100035.16;;;10.10;97.38
59419;BME280;45224;50.904;6.038;2023-01-05T01:59:44;100035.19;;;10.13;97.09
59419;BME280;45224;50.904;6.038;2023-01-05T02:01:15;100034.28;;;10.06;96.86
59419;BME280;45224;50.904;6.038;2023-01-05T02:02:48;100041.22;;;10.15;96.78
59419;BME280;45224;50.904;6.038;2023-01-05T02:04:25;100037.78;;;10.14;96.28
59419;BME280;45224;50.904;6.038;2023-01-05T02:05:56;100029.09;;;10.03;97.04
59419;BME280;45224;50.904;6.038;2023-01-05T02:07:31;100041.13;;;10.04;96.28
59419;BME280;45224;50.904;6.038;2023-01-05T02:09:03;100047.16;;;10.00;96.61
59419;BME280;45224;50.904;6.038;2023-01-05T02:14:52;100050.59;;;10.00;96.33
59419;BME280;45224;50.904;6.038;2023-01-05T02:18:10;100057.50;;;10.01;96.42
59419;BME280;45224;50.904;6.038;2023-01-05T02:24:08;100060.03;;;9.95;96.14
59419;BME280;45224;50.904;6.038;2023-01-05T02:38:21;100061.75;;;9.96;95.73
59419;BME280;45224;50.904;6.038;2023-01-05T02:39:59;100066.91;;;9.93;96.14
59419;BME280;45224;50.904;6.038;2023-01-05T02:42:00;100064.34;;;9.99;95.92
59419;BME280;45224;50.904;6.038;2023-01-05T02:43:32;100056.63;;;10.02;95.84
59419;BME280;45224;50.904;6.038;2023-01-05T02:45:04;100053.22;;;10.05;95.27
59419;BME280;45224;50.904;6.038;2023-01-05T02:46:35;100057.53;;;10.08;95.25
59419;BME280;45224;50.904;6.038;2023-01-05T02:48:06;100061.88;;;10.12;95.20
59419;BME280;45224;50.904;6.038;2023-01-05T02:49:39;100055.84;;;10.10;94.82
59419;BME280;45224;50.904;6.038;2023-01-05T02:51:18;100055.78;;;10.03;95.05
59419;BME280;45224;50.904;6.038;2023-01-05T02:53:21;100055.78;;;10.02;94.97
59419;BME280;45224;50.904;6.038;2023-01-05T02:54:55;100056.59;;;9.96;95.18
59419;BME280;45224;50.904;6.038;2023-01-05T02:56:41;100063.56;;;10.08;94.84
59419;BME280;45224;50.904;6.038;2023-01-05T02:59:55;100067.78;;;9.95;95.19
59419;BME280;45224;50.904;6.038;2023-01-05T03:01:31;100053.19;;;10.00;95.08
59419;BME280;45224;50.904;6.038;2023-01-05T03:03:20;100058.38;;;10.07;94.82
59419;BME280;45224;50.904;6.038;2023-01-05T03:05:00;100062.69;;;10.04;94.48
59419;BME280;45224;50.904;6.038;2023-01-05T03:06:38;100060.97;;;10.07;94.53
59419;BME280;45224;50.904;6.038;2023-01-05T03:08:17;100050.69;;;10.13;94.20
59419;BME280;45224;50.904;6.038;2023-01-05T03:09:52;100059.28;;;10.13;94.04
59419;BME280;45224;50.904;6.038;2023-01-05T03:11:28;100061.00;;;10.10;94.12
59419;BME280;45224;50.904;6.038;2023-01-05T03:13:22;100054.09;;;10.09;94.24
59419;BME280;45224;50.904;6.038;2023-01-05T03:15:26;100054.88;;;9.95;93.99
59419;BME280;45224;50.904;6.038;2023-01-05T03:17:00;100055.75;;;9.99;94.60
59419;BME280;45224;50.904;6.038;2023-01-05T03:18:33;100055.81;;;10.07;94.65
59419;BME280;45224;50.904;6.038;2023-01-05T03:20:27;100056.63;;;10.02;94.16
59419;BME280;45224;50.904;6.038;2023-01-05T03:22:03;100057.47;;;9.95;94.58
59419;BME280;45224;50.904;6.038;2023-01-05T03:23:55;100053.13;;;9.94;94.44
59419;BME280;45224;50.904;6.038;2023-01-05T03:25:47;100057.50;;;10.01;94.24
59419;BME280;45224;50.904;6.038;2023-01-05T03:27:40;100048.81;;;9.90;94.50
59419;BME280;45224;50.904;6.038;2023-01-05T03:29:31;100057.44;;;9.92;94.26
59419;BME280;45224;50.904;6.038;2023-01-05T03:31:41;100056.56;;;9.89;94.26
59419;BME280;45224;50.904;6.038;2023-01-05T03:33:39;100058.28;;;9.93;94.55
59419;BME280;45224;50.904;6.038;2023-01-05T03:35:32;100066.03;;;9.91;94.44
59419;BME280;45224;50.904;6.038;2023-01-05T03:37:09;100070.38;;;9.94;94.89
59419;BME280;45224;50.904;6.038;2023-01-05T03:38:42;100063.50;;;10.00;93.88
59419;BME280;45224;50.904;6.038;2023-01-05T03:40:24;100057.50;;;10.01;93.63
59419;BME280;45224;50.904;6.038;2023-01-05T03:41:57;100082.44;;;9.99;94.29
59419;BME280;45224;50.904;6.038;2023-01-05T03:43:32;100074.69;;;9.99;93.91
59419;BME280;45224;50.904;6.038;2023-01-05T03:45:05;100069.50;;;9.93;94.33
59419;BME280;45224;50.904;6.038;2023-01-05T03:46:37;100075.50;;;9.92;94.41
59419;BME280;45224;50.904;6.038;2023-01-05T03:48:08;100078.09;;;9.94;94.26
59419;BME280;45224;50.904;6.038;2023-01-05T03:49:38;100070.44;;;10.03;93.89
59419;BME280;45224;50.904;6.038;2023-01-05T03:51:09;100078.16;;;9.98;94.41
59419;BME280;45224;50.904;6.038;2023-01-05T03:52:42;100079.00;;;9.97;94.59
59419;BME280;45224;50.904;6.038;2023-01-05T03:54:12;100081.53;;;9.91;94.96
59419;BME280;45224;50.904;6.038;2023-01-05T03:55:44;100079.84;;;9.93;94.59
59419;BME280;45224;50.904;6.038;2023-01-05T03:57:16;100090.00;;;9.75;94.94
59419;BME280;45224;50.904;6.038;2023-01-05T03:58:47;100074.66;;;9.90;95.43
59419;BME280;45224;50.904;6.038;2023-01-05T04:00:18;100077.25;;;9.92;94.95
59419;BME280;45224;50.904;6.038;2023-01-05T04:01:52;100076.38;;;9.94;94.86
59419;BME280;45224;50.904;6.038;2023-01-05T04:03:22;100081.56;;;9.97;94.68
59419;BME280;45224;50.904;6.038;2023-01-05T04:04:54;100086.72;;;9.94;95.23
59419;BME280;45224;50.904;6.038;2023-01-05T04:06:25;100079.06;;;10.07;94.57
59419;BME280;45224;50.904;6.038;2023-01-05T04:07:56;100085.03;;;9.99;94.70
59419;BME280;45224;50.904;6.038;2023-01-05T04:09:26;100084.16;;;9.97;94.73
59419;BME280;45224;50.904;6.038;2023-01-05T04:11:09;100079.03;;;10.02;94.25
59419;BME280;45224;50.904;6.038;2023-01-05T04:12:40;100075.59;;;10.03;94.60
59419;BME280;45224;50.904;6.038;2023-01-05T04:14:11;100081.59;;;10.00;94.90
59419;BME280;45224;50.904;6.038;2023-01-05T04:15:42;100088.53;;;10.08;94.64
59419;BME280;45224;50.904;6.038;2023-01-05T04:17:13;100081.66;;;10.10;94.50
59419;BME280;45224;50.904;6.038;2023-01-05T04:18:44;100089.41;;;10.08;95.23
59419;BME280;45224;50.904;6.038;2023-01-05T04:20:16;100093.66;;;9.98;95.74
59419;BME280;45224;50.904;6.038;2023-01-05T04:21:47;100091.94;;;10.03;96.21
59419;BME280;45224;50.904;6.038;2023-01-05T04:23:18;100086.75;;;9.97;96.49
59419;BME280;45224;50.904;6.038;2023-01-05T04:24:48;100085.91;;;9.98;96.36
59419;BME280;45224;50.904;6.038;2023-01-05T04:26:19;100080.72;;;9.97;97.03
59419;BME280;45224;50.904;6.038;2023-01-05T04:27:52;100082.44;;;9.99;96.92
59419;BME280;45224;50.904;6.038;2023-01-05T04:29:25;100093.66;;;10.00;96.86
59419;BME280;45224;50.904;6.038;2023-01-05T04:30:57;100078.94;;;9.91;96.91
59419;BME280;45224;50.904;6.038;2023-01-05T04:32:29;100084.06;;;9.83;97.28
59419;BME280;45224;50.904;6.038;2023-01-05T04:33:59;100086.72;;;9.94;97.20
59419;BME280;45224;50.904;6.038;2023-01-05T04:35:30;100081.47;;;9.85;97.11
59419;BME280;45224;50.904;6.038;2023-01-05T04:37:01;100084.09;;;9.90;96.97
59419;BME280;45224;50.904;6.038;2023-01-05T04:38:34;100085.78;;;9.86;97.11
59419;BME280;45224;50.904;6.038;2023-01-05T04:40:05;100085.00;;;9.96;96.64
59419;BME280;45224;50.904;6.038;2023-01-05T04:41:43;100100.50;;;9.96;97.06
59419;BME280;45224;50.904;6.038;2023-01-05T04:43:14;100099.66;;;9.97;96.77
59419;BME280;45224;50.904;6.038;2023-01-05T04:44:44;100101.31;;;9.91;96.98
59419;BME280;45224;50.904;6.038;2023-01-05T04:46:16;100098.69;;;9.83;97.46
59419;BME280;45224;50.904;6.038;2023-01-05T04:47:50;100091.78;;;9.85;97.55
59419;BME280;45224;50.904;6.038;2023-01-05T04:49:24;100097.91;;;9.96;96.92
59419;BME280;45224;50.904;6.038;2023-01-05T04:50:55;100096.19;;;9.94;96.98
59419;BME280;45224;50.904;6.038;2023-01-05T04:52:32;100085.00;;;9.96;96.47
59419;BME280;45224;50.904;6.038;2023-01-05T04:54:03;100086.75;;;9.97;96.61
59419;BME280;45224;50.904;6.038;2023-01-05T04:55:34;100093.63;;;9.97;96.54
59419;BME280;45224;50.904;6.038;2023-01-05T04:57:04;100087.53;;;9.89;97.08
59419;BME280;45224;50.904;6.038;2023-01-05T04:58:35;100086.63;;;9.85;97.06
59419;BME280;45224;50.904;6.038;2023-01-05T05:00:07;100093.56;;;9.89;96.77
59419;BME280;45224;50.904;6.038;2023-01-05T05:01:37;100097.03;;;9.91;96.85
59419;BME280;45224;50.904;6.038;2023-01-05T05:03:08;100102.22;;;9.96;96.65
59419;BME280;45224;50.904;6.038;2023-01-05T05:04:39;100098.72;;;9.89;96.87
59419;BME280;45224;50.904;6.038;2023-01-05T05:06:09;100095.31;;;9.90;96.89
59419;BME280;45224;50.904;6.038;2023-01-05T05:07:40;100092.72;;;9.90;96.77
59419;BME280;45224;50.904;6.038;2023-01-05T05:09:12;100097.06;;;9.96;96.46
59419;BME280;45224;50.904;6.038;2023-01-05T05:10:43;100103.94;;;9.92;96.76
59419;BME280;45224;50.904;6.038;2023-01-05T05:12:13;100106.56;;;9.98;96.72
59419;BME280;45224;50.904;6.038;2023-01-05T05:13:44;100091.84;;;9.90;96.49
59419;BME280;45224;50.904;6.038;2023-01-05T05:15:15;100104.78;;;9.94;96.34
59419;BME280;45224;50.904;6.038;2023-01-05T05:16:49;100104.78;;;9.94;96.30
59419;BME280;45224;50.904;6.038;2023-01-05T05:18:20;100107.34;;;9.91;96.41
59419;BME280;45224;50.904;6.038;2023-01-05T05:19:52;100107.31;;;9.82;96.75
59419;BME280;45224;50.904;6.038;2023-01-05T05:21:25;100108.25;;;9.93;97.01
59419;BME280;45224;50.904;6.038;2023-01-05T05:22:56;100105.63;;;9.87;97.11
59419;BME280;45224;50.904;6.038;2023-01-05T05:24:27;100109.09;;;9.92;96.65
59419;BME280;45224;50.904;6.038;2023-01-05T05:25:57;100105.63;;;9.90;96.83
59419;BME280;45224;50.904;6.038;2023-01-05T05:27:28;100106.47;;;9.89;96.86
59419;BME280;45224;50.904;6.038;2023-01-05T05:28:59;100106.50;;;9.91;97.11
59419;BME280;45224;50.904;6.038;2023-01-05T05:30:29;100090.09;;;9.84;97.10
59419;BME280;45224;50.904;6.038;2023-01-05T05:32:00;100094.38;;;9.80;97.61
59419;BME280;45224;50.904;6.038;2023-01-05T05:33:30;100091.78;;;9.85;97.45
59419;BME280;45224;50.904;6.038;2023-01-05T05:35:01;100096.97;;;9.85;97.56
59419;BME280;45224;50.904;6.038;2023-01-05T05:36:32;100108.13;;;9.79;97.77
59419;BME280;45224;50.904;6.038;2023-01-05T05:38:02;100099.56;;;9.83;97.49
59419;BME280;45224;50.904;6.038;2023-01-05T05:39:33;100114.22;;;9.89;97.20
59419;BME280;45224;50.904;6.038;2023-01-05T05:41:03;100112.44;;;9.79;97.38
59419;BME280;45224;50.904;6.038;2023-01-05T05:42:34;100110.72;;;9.81;97.56
59419;BME280;45224;50.904;6.038;2023-01-05T05:44:04;100113.38;;;9.89;97.09
59419;BME280;45224;50.904;6.038;2023-01-05T05:45:34;100127.16;;;9.91;96.92
59419;BME280;45224;50.904;6.038;2023-01-05T05:47:05;100112.50;;;9.88;97.20
59419;BME280;45224;50.904;6.038;2023-01-05T05:48:35;100115.09;;;9.93;97.32
59419;BME280;45224;50.904;6.038;2023-01-05T05:50:06;100118.56;;;9.92;97.87
59419;BME280;45224;50.904;6.038;2023-01-05T05:51:37;100123.75;;;9.95;97.56
59419;BME280;45224;50.904;6.038;2023-01-05T05:53:07;100131.47;;;9.90;97.56
59419;BME280;45224;50.904;6.038;2023-01-05T05:54:38;100131.41;;;9.84;98.41
59419;BME280;45224;50.904;6.038;2023-01-05T05:56:08;100134.03;;;9.87;98.18
59419;BME280;45224;50.904;6.038;2023-01-05T05:57:38;100138.31;;;9.88;98.14
59419;BME280;45224;50.904;6.038;2023-01-05T05:59:09;100146.09;;;9.91;98.19
59419;BME280;45224;50.904;6.038;2023-01-05T06:00:39;100148.63;;;9.83;98.27
59419;BME280;45224;50.904;6.038;2023-01-05T06:02:10;100146.03;;;9.82;98.53
59419;BME280;45224;50.904;6.038;2023-01-05T06:03:40;100150.34;;;9.86;98.56
59419;BME280;45224;50.904;6.038;2023-01-05T06:05:11;100155.53;;;9.86;98.44
59419;BME280;45224;50.904;6.038;2023-01-05T06:06:41;100156.38;;;9.88;98.48
59419;BME280;45224;50.904;6.038;2023-01-05T06:08:12;100146.06;;;9.90;98.04
59419;BME280;45224;50.904;6.038;2023-01-05T06:09:42;100149.50;;;9.87;98.65
59419;BME280;45224;50.904;6.038;2023-01-05T06:11:13;100150.28;;;9.80;99.20
59419;BME280;45224;50.904;6.038;2023-01-05T06:12:43;100160.69;;;9.86;98.73
59419;BME280;45224;50.904;6.038;2023-01-05T06:14:14;100157.25;;;9.85;99.03
59419;BME280;45224;50.904;6.038;2023-01-05T06:15:44;100148.63;;;9.82;98.82
59419;BME280;45224;50.904;6.038;2023-01-05T06:17:15;100151.22;;;9.83;98.65
59419;BME280;45224;50.904;6.038;2023-01-05T06:18:45;100161.53;;;9.82;98.89
59419;BME280;45224;50.904;6.038;2023-01-05T06:20:16;100153.72;;;9.76;98.77
59419;BME280;45224;50.904;6.038;2023-01-05T06:21:46;100162.25;;;9.68;99.87
59419;BME280;45224;50.904;6.038;2023-01-05T06:23:17;100149.34;;;9.68;99.04
59419;BME280;45224;50.904;6.038;2023-01-05T06:24:47;100170.94;;;9.80;98.72
59419;BME280;45224;50.904;6.038;2023-01-05T06:26:18;100160.59;;;9.77;98.79
59419;BME280;45224;50.904;6.038;2023-01-05T06:27:49;100176.16;;;9.83;98.41
59419;BME280;45224;50.904;6.038;2023-01-05T06:29:19;100173.56;;;9.83;98.44
59419;BME280;45224;50.904;6.038;2023-01-05T06:30:50;100171.84;;;9.85;98.25
59419;BME280;45224;50.904;6.038;2023-01-05T06:32:20;100169.22;;;9.76;97.80
59419;BME280;45224;50.904;6.038;2023-01-05T06:33:51;100174.47;;;9.88;97.61
59419;BME280;45224;50.904;6.038;2023-01-05T06:35:21;100175.34;;;9.89;97.66
59419;BME280;45224;50.904;6.038;2023-01-05T06:36:52;100174.47;;;9.88;97.43
59419;BME280;45224;50.904;6.038;2023-01-05T06:38:23;100171.84;;;9.82;97.64
59419;BME280;45224;50.904;6.038;2023-01-05T06:39:54;100179.59;;;9.85;96.99
59419;BME280;45224;50.904;6.038;2023-01-05T06:41:25;100169.25;;;9.79;97.23
59419;BME280;45224;50.904;6.038;2023-01-05T06:42:55;100177.84;;;9.78;97.64
59419;BME280;45224;50.904;6.038;2023-01-05T06:44:26;100177.03;;;9.85;97.57
59419;BME280;45224;50.904;6.038;2023-01-05T06:45:56;100182.19;;;9.82;97.16
59419;BME280;45224;50.904;6.038;2023-01-05T06:47:28;100183.06;;;9.84;97.30
59419;BME280;45224;50.904;6.038;2023-01-05T06:48:58;100182.19;;;9.86;96.50
59419;BME280;45224;50.904;6.038;2023-01-05T06:50:29;100183.13;;;9.90;96.66
59419;BME280;45224;50.904;6.038;2023-01-05T06:52:01;100184.78;;;9.88;96.09
59419;BME280;45224;50.904;6.038;2023-01-05T06:53:31;100190.00;;;9.91;96.27
59419;BME280;45224;50.904;6.038;2023-01-05T06:55:03;100186.56;;;9.91;96.00
59419;BME280;45224;50.904;6.038;2023-01-05T06:56:33;100195.13;;;9.88;96.51
59419;BME280;45224;50.904;6.038;2023-01-05T06:58:03;100192.59;;;9.94;95.91
59419;BME280;45224;50.904;6.038;2023-01-05T06:59:34;100186.53;;;9.89;96.02
59419;BME280;45224;50.904;6.038;2023-01-05T07:01:04;100200.31;;;9.90;95.93
59419;BME280;45224;50.904;6.038;2023-01-05T07:02:35;100200.34;;;9.94;95.77
59419;BME280;45224;50.904;6.038;2023-01-05T07:04:06;100198.63;;;9.90;95.73
59419;BME280;45224;50.904;6.038;2023-01-05T07:05:36;100209.81;;;9.91;96.13
59419;BME280;45224;50.904;6.038;2023-01-05T07:07:10;100207.16;;;9.86;95.80
59419;BME280;45224;50.904;6.038;2023-01-05T07:08:41;100211.50;;;9.89;96.11
59419;BME280;45224;50.904;6.038;2023-01-05T07:10:12;100214.09;;;9.90;95.85
59419;BME280;45224;50.904;6.038;2023-01-05T07:11:42;100201.19;;;9.89;95.71
59419;BME280;45224;50.904;6.038;2023-01-05T07:13:13;100218.38;;;9.88;95.58
59419;BME280;45224;50.904;6.038;2023-01-05T07:14:43;100214.91;;;9.86;95.48
59419;BME280;45224;50.904;6.038;2023-01-05T07:16:14;100221.00;;;9.91;95.71
59419;BME280;45224;50.904;6.038;2023-01-05T07:17:44;100218.38;;;9.90;95.42
59419;BME280;45224;50.904;6.038;2023-01-05T07:19:15;100227.88;;;9.91;95.81
59419;BME280;45224;50.904;6.038;2023-01-05T07:20:45;100229.50;;;9.81;95.83
59419;BME280;45224;50.904;6.038;2023-01-05T07:22:16;100223.50;;;9.85;95.74
59419;BME280;45224;50.904;6.038;2023-01-05T07:23:46;100228.72;;;9.90;95.66
59419;BME280;45224;50.904;6.038;2023-01-05T07:25:17;100238.22;;;9.92;95.60
59419;BME280;45224;50.904;6.038;2023-01-05T07:26:47;100233.84;;;9.86;95.69
59419;BME280;45224;50.904;6.038;2023-01-05T07:28:19;100228.69;;;9.86;95.34
59419;BME280;45224;50.904;6.038;2023-01-05T07:29:49;100229.56;;;9.85;95.29
59419;BME280;45224;50.904;6.038;2023-01-05T07:31:20;100232.09;;;9.81;95.83
59419;BME280;45224;50.904;6.038;2023-01-05T07:32:50;100232.13;;;9.84;95.79
59419;BME280;45224;50.904;6.038;2023-01-05T07:34:21;100234.75;;;9.87;95.52
59419;BME280;45224;50.904;6.038;2023-01-05T07:35:52;100226.09;;;9.85;95.71
59419;BME280;45224;50.904;6.038;2023-01-05T07:37:23;100229.56;;;9.87;95.69
59419;BME280;45224;50.904;6.038;2023-01-05T07:38:56;100235.66;;;9.94;95.16
59419;BME280;45224;50.904;6.038;2023-01-05T07:40:27;100222.69;;;9.89;94.99
59419;BME280;45224;50.904;6.038;2023-01-05T07:41:57;100232.22;;;9.92;95.06
59419;BME280;45224;50.904;6.038;2023-01-05T07:43:29;100221.81;;;9.87;95.24
59419;BME280;45224;50.904;6.038;2023-01-05T07:45:00;100220.94;;;9.82;95.32
59419;BME280;45224;50.904;6.038;2023-01-05T07:46:31;100232.09;;;9.81;95.63
59419;BME280;45224;50.904;6.038;2023-01-05T07:48:02;100224.38;;;9.84;95.59
59419;BME280;45224;50.904;6.038;2023-01-05T07:49:32;100228.69;;;9.83;95.65
59419;BME280;45224;50.904;6.038;2023-01-05T07:51:04;100229.63;;;9.92;95.30
59419;BME280;45224;50.904;6.038;2023-01-05T07:52:34;100245.03;;;9.84;95.81
59419;BME280;45224;50.904;6.038;2023-01-05T07:54:05;100234.72;;;9.84;95.82
59419;BME280;45224;50.904;6.038;2023-01-05T07:55:35;100235.50;;;9.78;95.85
59419;BME280;45224;50.904;6.038;2023-01-05T07:57:05;100247.53;;;9.78;95.69
59419;BME280;45224;50.904;6.038;2023-01-05T07:58:36;100246.75;;;9.82;95.73
59419;BME280;45224;50.904;6.038;2023-01-05T08:00:09;100240.72;;;9.84;95.73
59419;BME280;45224;50.904;6.038;2023-01-05T08:01:43;100250.31;;;9.95;95.17
59419;BME280;45224;50.904;6.038;2023-01-05T08:03:13;100263.22;;;9.96;95.67
59419;BME280;45224;50.904;6.038;2023-01-05T08:04:45;100263.19;;;9.92;95.42
59419;BME280;45224;50.904;6.038;2023-01-05T08:06:17;100262.31;;;9.91;95.71
59419;BME280;45224;50.904;6.038;2023-01-05T08:07:48;100267.41;;;9.85;96.12
59419;BME280;45224;50.904;6.038;2023-01-05T08:09:19;100270.09;;;9.94;95.74
59419;BME280;45224;50.904;6.038;2023-01-05T08:11:10;100270.13;;;9.97;95.65
59419;BME280;45224;50.904;6.038;2023-01-05T08:12:41;100263.91;;;9.80;96.02
59419;BME280;45224;50.904;6.038;2023-01-05T08:14:30;100266.59;;;9.89;96.19
59419;BME280;45224;50.904;6.038;2023-01-05T08:16:00;100264.84;;;9.86;96.39
59419;BME280;45224;50.904;6.038;2023-01-05T08:17:31;100276.09;;;9.90;96.08
59419;BME280;45224;50.904;6.038;2023-01-05T08:19:02;100270.97;;;9.93;95.93
59419;BME280;45224;50.904;6.038;2023-01-05T08:20:33;100277.88;;;9.97;95.59
59419;BME280;45224;50.904;6.038;2023-01-05T08:22:03;100279.59;;;9.97;95.95
59419;BME280;45224;50.904;6.038;2023-01-05T08:23:35;100278.75;;;9.98;96.13
59419;BME280;45224;50.904;6.038;2023-01-05T08:25:06;100266.72;;;9.98;95.40
59419;BME280;45224;50.904;6.038;2023-01-05T08:26:36;100272.69;;;9.94;96.51
59419;BME280;45224;50.904;6.038;2023-01-05T08:28:07;100274.38;;;9.92;97.13
59419;BME280;45224;50.904;6.038;2023-01-05T08:29:37;100270.97;;;9.93;97.12
59419;BME280;45224;50.904;6.038;2023-01-05T08:31:21;100277.66;;;9.76;97.66
59419;BME280;45224;50.904;6.038;2023-01-05T08:32:52;100281.03;;;9.72;98.07
59419;BME280;45224;50.904;6.038;2023-01-05T08:34:22;100282.00;;;9.80;98.00
59419;BME280;45224;50.904;6.038;2023-01-05T08:35:52;100275.88;;;9.72;97.58
59419;BME280;45224;50.904;6.038;2023-01-05T08:37:23;100282.03;;;9.83;97.55
59419;BME280;45224;50.904;6.038;2023-01-05T08:38:54;100286.31;;;9.79;97.25
59419;BME280;45224;50.904;6.038;2023-01-05T08:40:24;100284.59;;;9.81;97.27